Time;durP1;ratioP1;P1;durP2;ratioP2;P2;SDS_P1;SDS_P2;PMS_P1;PMS_P2;Temp;Humidity;BMP_temperature;BMP_pressure;BME280_temperature;BME280_humidity;BME280_pressure;Samples;Min_cycle;Max_cycle;Signal;HPM_P1;HPM_P2
2023/04/11 00:01:28;;;;;;;20.60;11.73;;;12.00;76.30;;;;;;5050405;28;20077;-72
2023/04/11 00:04:33;;;;;;;23.17;12.27;;;12.00;76.30;;;;;;5051385;28;20103;-72
2023/04/11 00:07:38;;;;;;;17.23;11.25;;;;;;;;;;5051167;28;20048;-72
2023/04/11 00:10:42;;;;;;;18.05;11.48;;;;;;;;;;5049976;28;20044;-70
2023/04/11 00:13:47;;;;;;;18.45;11.70;;;11.90;76.50;;;;;;5050242;28;20040;-70
2023/04/11 00:16:52;;;;;;;22.67;13.80;;;11.90;76.60;;;;;;5050957;28;20052;-70
2023/04/11 00:20:00;;;;;;;22.08;13.18;;;11.80;76.60;;;;;;5051169;28;20048;-72
2023/04/11 00:23:04;;;;;;;17.13;10.63;;;12.00;77.10;;;;;;5050636;28;20044;-69
2023/04/11 00:26:08;;;;;;;15.70;9.57;;;;;;;;;;5049437;28;20052;-72
2023/04/11 00:29:14;;;;;;;14.68;9.82;;;;;;;;;;5049767;28;20547;-72
2023/04/11 00:32:18;;;;;;;20.13;9.95;;;11.90;77.20;;;;;;5050975;28;20052;-72
2023/04/11 00:35:21;;;;;;;15.05;9.65;;;12.00;77.30;;;;;;5038378;28;20044;-72
2023/04/11 00:38:25;;;;;;;13.77;9.45;;;12.00;77.10;;;;;;5050787;28;20048;-71
2023/04/11 00:41:30;;;;;;;24.25;10.50;;;12.20;77.30;;;;;;5051029;28;20051;-72
2023/04/11 00:44:35;;;;;;;15.20;10.05;;;11.90;77.20;;;;;;5038372;28;20043;-72
2023/04/11 00:47:39;;;;;;;18.77;10.30;;;12.00;77.50;;;;;;5038120;28;20397;-70
2023/04/11 00:50:44;;;;;;;18.25;11.32;;;11.60;77.30;;;;;;5050750;28;20051;-70
2023/04/11 00:53:48;;;;;;;17.02;10.93;;;11.80;77.60;;;;;;5049718;28;20044;-70
2023/04/11 00:56:52;;;;;;;16.30;10.30;;;11.60;78.20;;;;;;5050802;28;20052;-71
2023/04/11 00:59:57;;;;;;;16.63;10.65;;;11.50;78.40;;;;;;5050532;28;20044;-71
2023/04/11 01:03:01;;;;;;;16.65;10.50;;;11.80;78.90;;;;;;5050145;28;20060;-71
2023/04/11 01:06:06;;;;;;;18.88;11.35;;;11.50;79.20;;;;;;5050594;28;20040;-71
2023/04/11 01:09:11;;;;;;;20.17;10.98;;;11.40;79.50;;;;;;5049553;28;20396;-71
2023/04/11 01:12:16;;;;;;;24.90;12.10;;;11.50;80.40;;;;;;5050696;28;20387;-71
2023/04/11 01:15:21;;;;;;;19.88;11.90;;;15.10;82.90;;;;;;5050295;28;20056;-71
2023/04/11 01:18:25;;;;;;;18.75;11.40;;;12.00;81.70;;;;;;5050283;28;20048;-71
2023/04/11 01:21:31;;;;;;;18.05;11.85;;;11.30;81.60;;;;;;5049703;28;20047;-71
2023/04/11 01:24:34;;;;;;;17.88;12.05;;;10.90;80.90;;;;;;5049075;28;20036;-71
2023/04/11 01:27:38;;;;;;;21.48;12.68;;;10.90;81.00;;;;;;5050528;28;20056;-71
2023/04/11 01:30:42;;;;;;;24.10;12.68;;;10.80;81.10;;;;;;5049618;28;20044;-71
2023/04/11 01:33:46;;;;;;;19.80;11.73;;;10.70;82.00;;;;;;5049449;28;20116;-71
2023/04/11 01:36:50;;;;;;;18.63;12.85;;;8.70;81.60;;;;;;5050588;28;20048;-71
2023/04/11 01:39:54;;;;;;;20.65;13.50;;;10.40;83.10;;;;;;5053588;28;20040;-71
2023/04/11 01:43:00;;;;;;;21.13;13.20;;;10.20;81.80;;;;;;5041859;28;20646;-71
2023/04/11 01:46:04;;;;;;;24.15;14.40;;;10.50;81.50;;;;;;5041605;28;20052;-71
2023/04/11 01:49:09;;;;;;;23.52;14.15;;;10.40;82.00;;;;;;5052662;28;20393;-71
2023/04/11 01:52:12;;;;;;;23.88;13.32;;;10.50;83.20;;;;;;5053868;28;20040;-71
2023/04/11 01:55:16;;;;;;;23.20;13.93;;;10.30;83.90;;;;;;5053372;28;20063;-71
2023/04/11 01:58:21;;;;;;;20.77;13.35;;;9.50;84.30;;;;;;5052772;28;20047;-71
2023/04/11 02:01:26;;;;;;;20.58;13.32;;;9.00;84.40;;;;;;5041369;28;20412;-71
2023/04/11 02:04:30;;;;;;;20.33;12.80;;;10.70;85.60;;;;;;5053434;28;20048;-71
2023/04/11 02:07:34;;;;;;;22.70;13.05;;;8.40;84.20;;;;;;5052656;28;20048;-71
2023/04/11 02:10:37;;;;;;;19.95;12.88;;;10.20;85.10;;;;;;5053315;28;20381;-71
2023/04/11 02:13:41;;;;;;;23.85;12.23;;;9.80;84.70;;;;;;5053070;28;20052;-71
2023/04/11 02:16:54;;;;;;;16.02;11.50;;;9.50;84.70;;;;;;5052453;28;20507;-71
2023/04/11 02:19:58;;;;;;;22.52;13.38;;;10.10;84.30;;;;;;5052948;28;20048;-71
2023/04/11 02:23:03;;;;;;;18.77;11.68;;;10.20;84.00;;;;;;5041032;28;20385;-71
2023/04/11 02:26:07;;;;;;;21.50;12.77;;;10.20;84.20;;;;;;5052728;28;20056;-71
2023/04/11 02:29:11;;;;;;;18.67;11.88;;;10.20;84.30;;;;;;5029421;28;20043;-71
2023/04/11 02:32:15;;;;;;;19.45;11.80;;;10.00;84.30;;;;;;5052727;28;20036;-71
2023/04/11 02:35:19;;;;;;;18.00;11.90;;;10.00;84.80;;;;;;5052582;28;20048;-71
2023/04/11 02:38:23;;;;;;;27.02;14.60;;;10.00;84.50;;;;;;5052203;28;20512;-71
2023/04/11 02:41:28;;;;;;;23.52;12.98;;;12.10;84.80;;;;;;5052832;28;20040;-71
2023/04/11 02:44:32;;;;;;;20.70;13.02;;;9.90;84.30;;;;;;5052612;28;20056;-71
2023/04/11 02:47:38;;;;;;;22.75;12.43;;;9.70;84.90;;;;;;5052231;28;20048;-71
2023/04/11 02:50:44;;;;;;;19.42;13.10;;;9.60;85.50;;;;;;5051759;28;20048;-71
2023/04/11 02:53:48;;;;;;;18.90;12.18;;;8.60;84.90;;;;;;5051576;28;20052;-71
2023/04/11 02:56:55;;;;;;;23.35;13.43;;;9.40;85.40;;;;;;5051806;28;20131;-71
2023/04/11 02:59:59;;;;;;;21.73;11.95;;;9.40;85.70;;;;;;5051662;28;20389;-71
2023/04/11 03:03:14;;;;;;;19.60;12.00;;;;;;;;;;5051693;28;20040;-71
2023/04/11 03:06:22;;;;;;;23.60;13.77;;;10.40;87.50;;;;;;5040163;28;20040;-71
2023/04/11 03:09:28;;;;;;;24.05;15.88;;;10.60;87.30;;;;;;5051305;28;20063;-71
2023/04/11 03:12:32;;;;;;;24.90;14.80;;;9.30;86.60;;;;;;5052186;28;20540;-71
2023/04/11 03:15:40;;;;;;;24.70;15.93;;;9.20;86.80;;;;;;5051100;28;20040;-71
2023/04/11 03:18:46;;;;;;;27.30;16.30;;;9.40;86.60;;;;;;5051035;28;20047;-71
2023/04/11 03:21:50;;;;;;;34.60;15.50;;;11.00;87.20;;;;;;5052038;28;20397;-71
2023/04/11 03:24:55;;;;;;;33.83;15.80;;;9.10;86.00;;;;;;5050731;28;20051;-71
2023/04/11 03:28:00;;;;;;;35.00;17.10;;;8.60;86.00;;;;;;5051242;28;20048;-71
2023/04/11 03:31:04;;;;;;;22.38;14.25;;;9.30;87.30;;;;;;5051049;28;20583;-70
2023/04/11 03:34:08;;;;;;;22.75;13.48;;;9.40;87.80;;;;;;5051096;28;20063;-70
2023/04/11 03:37:13;;;;;;;26.85;14.38;;;9.90;87.00;;;;;;5050593;28;20052;-70
2023/04/11 03:40:17;;;;;;;24.70;12.75;;;8.00;87.30;;;;;;5050277;28;20123;-70
2023/04/11 03:43:26;;;;;;;19.92;12.68;;;;;;;;;;5050808;28;20052;-71
2023/04/11 03:46:30;;;;;;;26.98;12.93;;;9.50;88.40;;;;;;5039191;28;20048;-71
2023/04/11 03:49:35;;;;;;;22.92;12.70;;;;;;;;;;5051534;28;20056;-70
2023/04/11 03:52:40;;;;;;;21.67;13.15;;;;;;;;;;5051359;28;20040;-70
2023/04/11 03:55:48;;;;;;;22.33;13.25;;;8.30;88.40;;;;;;5050402;28;20056;-71
2023/04/11 03:58:54;;;;;;;22.83;14.05;;;10.10;89.10;;;;;;5050172;28;20044;-71
2023/04/11 04:02:03;;;;;;;26.33;13.35;;;;;;;;;;5050482;28;20052;-71
2023/04/11 04:05:08;;;;;;;24.13;13.00;;;9.30;88.80;;;;;;5050920;28;20504;-71
2023/04/11 04:08:15;;;;;;;29.73;13.43;;;9.20;89.10;;;;;;5050299;28;20052;-71
2023/04/11 04:11:25;;;;;;;25.45;14.60;;;9.30;89.20;;;;;;5050241;28;20056;-70
2023/04/11 04:14:31;;;;;;;25.63;14.02;;;8.00;88.50;;;;;;5050527;28;20048;-70
2023/04/11 04:17:37;;;;;;;30.70;15.63;;;;;;;;;;5050311;28;20051;-70
2023/04/11 04:20:46;;;;;;;22.15;13.32;;;9.00;89.20;;;;;;5050371;28;20052;-70
2023/04/11 04:23:50;;;;;;;24.25;13.70;;;8.70;88.80;;;;;;5049996;28;20393;-72
2023/04/11 04:27:02;;;;;;;25.67;14.73;;;9.40;88.20;;;;;;5050204;28;20064;-72
2023/04/11 04:30:32;;;;;;;24.30;14.98;;;8.70;86.80;;;;;;5050728;28;20040;-72
2023/04/11 04:33:43;;;;;;;26.85;15.00;;;9.30;87.80;;;;;;5038246;28;20405;-72
2023/04/11 04:37:01;;;;;;;23.85;14.55;;;9.10;88.00;;;;;;5049756;28;20064;-72
2023/04/11 04:40:19;;;;;;;23.50;14.85;;;8.30;87.30;;;;;;5049694;28;20405;-72
2023/04/11 04:43:40;;;;;;;27.00;13.98;;;8.80;88.00;;;;;;5040686;28;20687;-70
2023/04/11 04:46:54;;;;;;;23.92;14.45;;;8.80;87.40;;;;;;5049861;28;20489;-72
2023/04/11 04:50:01;;;;;;;22.65;14.63;;;;;;;;;;5049552;28;20040;-70
2023/04/11 04:53:06;;;;;;;30.23;14.63;;;6.90;86.90;;;;;;5049896;28;20052;-70
2023/04/11 04:56:10;;;;;;;26.88;14.35;;;8.80;89.00;;;;;;5049594;28;20424;-70
2023/04/11 04:59:21;;;;;;;24.00;14.43;;;;;;;;;;5049795;28;20151;-70
2023/04/11 05:02:32;;;;;;;26.33;15.50;;;8.50;85.30;;;;;;5049635;28;20060;-71
2023/04/11 05:05:36;;;;;;;33.60;15.43;;;9.60;86.10;;;;;;5049591;28;20269;-72
2023/04/11 05:08:41;;;;;;;33.05;17.63;;;9.70;86.80;;;;;;5038277;28;20419;-71
2023/04/11 05:11:49;;;;;;;31.27;15.95;;;9.50;86.10;;;;;;5051604;28;20044;-70
2023/04/11 05:14:55;;;;;;;31.38;15.65;;;9.70;85.90;;;;;;5053707;28;20048;-71
2023/04/11 05:17:59;;;;;;;27.00;15.15;;;9.70;85.10;;;;;;5053497;28;20048;-71
2023/04/11 05:21:04;;;;;;;34.10;14.73;;;9.90;85.40;;;;;;5053167;28;20492;-64
2023/04/11 05:24:13;;;;;;;33.95;17.17;;;10.20;85.50;;;;;;5053466;28;20653;-65
2023/04/11 05:27:18;;;;;;;25.92;13.98;;;10.10;83.90;;;;;;5053429;28;20123;-65
2023/04/11 05:30:22;;;;;;;29.38;14.65;;;10.40;83.40;;;;;;5053202;28;20064;-66
2023/04/11 05:33:28;;;;;;;32.65;17.60;;;10.80;83.30;;;;;;5053497;28;20044;-66
2023/04/11 05:36:34;;;;;;;94.78;44.28;;;11.10;82.00;;;;;;5053109;28;20076;-67
2023/04/11 05:39:38;;;;;;;69.20;37.45;;;11.80;80.40;;;;;;5052847;28;20036;-67
2023/04/11 05:42:42;;;;;;;71.53;37.45;;;12.80;78.40;;;;;;5054091;28;20527;-67
2023/04/11 05:45:46;;;;;;;83.82;41.55;;;;;;;;;;5053983;28;20044;-66
2023/04/11 05:48:51;;;;;;;77.22;37.75;;;;;;;;;;5041369;28;20040;-66
2023/04/11 05:51:55;;;;;;;36.88;21.27;;;;;;;;;;5053775;28;20048;-66
2023/04/11 05:55:00;;;;;;;45.58;20.27;;;;;;;;;;5052959;28;20499;-66
2023/04/11 05:58:04;;;;;;;33.08;16.88;;;14.20;74.50;;;;;;5053827;28;20052;-66
2023/04/11 06:01:13;;;;;;;27.98;16.33;;;14.30;74.80;;;;;;5053465;28;20056;-66
2023/04/11 06:04:16;;;;;;;29.48;15.18;;;14.50;74.20;;;;;;5053287;28;20126;-65
2023/04/11 06:07:21;;;;;;;28.88;15.32;;;14.60;74.20;;;;;;5053629;28;20048;-66
2023/04/11 06:10:26;;;;;;;46.10;16.50;;;14.90;73.80;;;;;;5053218;28;20044;-65
2023/04/11 06:13:31;;;;;;;27.45;15.18;;;15.10;73.20;;;;;;5053300;28;20048;-68
2023/04/11 06:16:37;;;;;;;27.75;14.43;;;15.30;72.30;;;;;;5053004;28;20047;-67
2023/04/11 06:19:41;;;;;;;29.95;15.38;;;15.50;72.10;;;;;;5052195;28;20040;-68
2023/04/11 06:22:45;;;;;;;21.67;13.27;;;15.60;71.60;;;;;;5052091;28;20052;-67
2023/04/11 06:25:49;;;;;;;30.83;14.13;;;15.80;71.70;;;;;;5052730;28;20082;-68
2023/04/11 06:28:53;;;;;;;28.25;14.50;;;16.10;71.90;;;;;;5052731;28;20052;-68
2023/04/11 06:31:58;;;;;;;24.30;14.32;;;16.20;71.00;;;;;;5052675;28;20036;-67
2023/04/11 06:35:02;;;;;;;25.23;13.63;;;16.20;69.50;;;;;;5052836;28;20052;-67
2023/04/11 06:38:06;;;;;;;19.52;12.77;;;16.00;70.10;;;;;;5052584;28;20507;-68
2023/04/11 06:41:10;;;;;;;22.80;14.30;;;16.30;69.30;;;;;;5052667;28;20040;-68
2023/04/11 06:44:14;;;;;;;22.33;12.65;;;16.50;69.10;;;;;;5052401;28;20124;-68
2023/04/11 06:47:19;;;;;;;20.13;12.80;;;16.70;68.50;;;;;;5052235;28;20495;-68
2023/04/11 06:50:23;;;;;;;20.60;11.32;;;16.70;68.80;;;;;;5052152;28;20047;-68
2023/04/11 06:53:27;;;;;;;17.13;10.70;;;16.80;67.40;;;;;;5052151;28;20044;-68
2023/04/11 06:56:31;;;;;;;23.23;11.32;;;17.10;67.20;;;;;;5052380;28;20056;-68
2023/04/11 06:59:36;;;;;;;19.60;11.13;;;17.30;66.10;;;;;;5052405;28;20499;-68
2023/04/11 07:02:40;;;;;;;22.33;11.98;;;17.30;66.70;;;;;;5052314;28;20044;-68
2023/04/11 07:05:44;;;;;;;25.85;10.23;;;17.50;65.80;;;;;;5052461;28;20052;-68
2023/04/11 07:08:50;;;;;;;14.95;9.00;;;17.80;65.30;;;;;;5052124;28;20059;-68
2023/04/11 07:11:55;;;;;;;13.50;9.15;;;17.60;64.20;;;;;;5052109;28;20063;-68
2023/04/11 07:14:59;;;;;;;14.43;8.75;;;17.70;64.80;;;;;;5052175;28;20059;-68
2023/04/11 07:18:03;;;;;;;14.93;9.10;;;17.90;64.40;;;;;;5051946;28;20064;-67
2023/04/11 07:21:12;;;;;;;15.07;9.02;;;17.90;65.20;;;;;;5051607;28;20040;-69
2023/04/11 07:24:17;;;;;;;15.15;8.98;;;17.70;63.40;;;;;;5052090;28;20048;-70
2023/04/11 07:27:22;;;;;;;20.40;8.88;;;17.60;64.30;;;;;;5051636;28;20219;-70
2023/04/11 07:30:28;;;;;;;14.25;9.70;;;17.20;65.10;;;;;;5051451;28;20037;-67
2023/04/11 07:33:32;;;;;;;14.63;9.82;;;17.10;65.60;;;;;;5051439;28;20392;-67
2023/04/11 07:36:36;;;;;;;15.40;9.25;;;17.30;66.00;;;;;;5051503;28;20052;-67
2023/04/11 07:39:40;;;;;;;15.50;8.57;;;17.40;65.20;;;;;;5051605;28;20052;-68
2023/04/11 07:42:45;;;;;;;13.55;8.75;;;17.50;64.90;;;;;;5051435;28;20043;-68
2023/04/11 07:45:49;;;;;;;15.75;8.98;;;17.70;64.70;;;;;;5051507;28;20040;-67
2023/04/11 07:48:54;;;;;;;18.23;8.75;;;17.80;63.90;;;;;;5050463;28;20067;-66
2023/04/11 07:51:58;;;;;;;12.50;7.30;;;17.90;63.30;;;;;;5051637;28;20067;-66
2023/04/11 07:55:03;;;;;;;14.82;8.45;;;17.90;62.70;;;;;;5051561;28;20048;-66
2023/04/11 07:58:07;;;;;;;11.23;7.00;;;18.10;63.70;;;;;;5051358;28;20072;-68
2023/04/11 08:01:25;;;;;;;13.05;7.88;;;18.50;64.10;;;;;;5051283;28;20485;-67
2023/04/11 08:04:33;;;;;;;9.93;7.68;;;18.70;63.60;;;;;;5051074;28;20043;-66
2023/04/11 08:07:37;;;;;;;14.95;8.90;;;18.80;62.20;;;;;;5051392;28;20048;-66
2023/04/11 08:10:41;;;;;;;9.55;6.93;;;18.70;62.40;;;;;;5051351;28;20055;-68
2023/04/11 08:13:45;;;;;;;14.52;8.57;;;18.80;62.60;;;;;;5051053;28;20048;-67
2023/04/11 08:16:50;;;;;;;15.20;9.52;;;18.90;62.60;;;;;;5050825;28;20059;-69
2023/04/11 08:19:56;;;;;;;16.35;9.00;;;19.00;63.30;;;;;;5049681;28;20044;-68
2023/04/11 08:23:04;;;;;;;49.33;9.95;;;19.10;62.30;;;;;;5051133;28;20393;-68
2023/04/11 08:26:10;;;;;;;10.95;7.25;;;19.00;60.60;;;;;;5050373;28;20048;-71
2023/04/11 08:29:14;;;;;;;9.73;6.50;;;18.80;60.70;;;;;;5050715;28;20417;-69
2023/04/11 08:32:18;;;;;;;9.63;6.45;;;18.80;59.90;;;;;;5050772;28;20043;-69
2023/04/11 08:35:22;;;;;;;9.88;6.35;;;18.80;60.60;;;;;;5050811;28;20040;-70
2023/04/11 08:38:26;;;;;;;13.25;6.95;;;18.80;59.10;;;;;;5050309;28;20072;-71
2023/04/11 08:41:30;;;;;;;17.98;6.75;;;18.90;59.60;;;;;;5050707;28;20056;-68
2023/04/11 08:44:35;;;;;;;13.65;6.93;;;19.00;59.50;;;;;;5050586;28;20040;-67
2023/04/11 08:47:40;;;;;;;11.48;7.15;;;19.00;59.80;;;;;;5056745;28;20040;-67
2023/04/11 08:50:44;;;;;;;14.88;6.90;;;19.10;59.70;;;;;;5057496;28;20048;-68
2023/04/11 08:53:49;;;;;;;7.80;6.10;;;18.90;59.60;;;;;;5057405;28;20115;-67
2023/04/11 08:56:53;;;;;;;9.45;5.88;;;18.80;60.20;;;;;;5057145;28;20056;-68
2023/04/11 09:00:12;;;;;;;9.82;5.65;;;18.80;63.10;;;;;;5057106;28;20044;-68
2023/04/11 09:03:16;;;;;;;9.77;6.05;;;18.90;65.40;;;;;;5057140;28;20048;-68
2023/04/11 09:06:20;;;;;;;9.52;5.95;;;19.00;65.20;;;;;;5057377;28;20044;-68
2023/04/11 09:09:29;;;;;;;12.48;6.53;;;19.00;64.90;;;;;;5056953;28;20052;-70
2023/04/11 09:12:33;;;;;;;10.35;6.18;;;18.90;63.30;;;;;;5057268;28;20039;-69
2023/04/11 09:15:37;;;;;;;9.57;5.80;;;18.90;64.10;;;;;;5057073;28;20052;-70
2023/04/11 09:18:45;;;;;;;11.63;6.95;;;19.00;65.40;;;;;;5056644;28;20055;-74
2023/04/11 09:21:50;;;;;;;8.50;5.80;;;19.10;64.40;;;;;;5056730;28;20507;-68
2023/04/11 09:25:03;;;;;;;5.80;4.63;;;19.10;65.10;;;;;;5057357;28;20048;-68
2023/04/11 09:28:09;;;;;;;14.77;6.15;;;19.20;67.00;;;;;;5056759;28;20063;-68
2023/04/11 09:31:13;;;;;;;7.07;5.30;;;19.20;67.00;;;;;;5056954;28;20048;-71
2023/04/11 09:34:26;;;;;;;8.50;5.03;;;19.30;67.10;;;;;;5056847;28;20044;-70
2023/04/11 09:37:45;;;;;;;10.60;5.97;;;19.50;66.90;;;;;;5056693;28;20420;-68
2023/04/11 09:40:52;;;;;;;18.58;6.57;;;19.60;65.80;;;;;;5056155;28;20048;-73
2023/04/11 09:43:56;;;;;;;14.93;7.82;;;19.70;66.00;;;;;;5055836;28;20400;-70
2023/04/11 09:47:00;;;;;;;22.20;7.93;;;19.80;66.10;;;;;;5056564;28;20484;-68
2023/04/11 09:50:05;;;;;;;8.05;5.78;;;19.90;66.60;;;;;;5056796;28;20052;-67
2023/04/11 09:53:09;;;;;;;13.15;6.90;;;19.90;65.50;;;;;;5056973;28;20392;-66
2023/04/11 09:56:13;;;;;;;9.95;7.43;;;20.00;66.20;;;;;;5056511;28;20048;-67
2023/04/11 09:59:20;;;;;;;10.85;6.32;;;20.00;66.40;;;;;;5052582;28;20389;-68
2023/04/11 10:02:24;;;;;;;8.50;6.80;;;20.10;66.10;;;;;;5052813;28;20044;-68
2023/04/11 10:05:30;;;;;;;9.38;6.47;;;20.10;65.50;;;;;;5052223;28;20052;-68
2023/04/11 10:08:40;;;;;;;17.77;8.18;;;20.20;65.80;;;;;;5053455;28;20048;-68
2023/04/11 10:11:45;;;;;;;11.97;6.73;;;20.10;64.30;;;;;;5053370;28;20052;-68
2023/04/11 10:14:49;;;;;;;11.60;6.40;;;20.10;65.30;;;;;;5053279;28;20507;-68
2023/04/11 10:18:08;;;;;;;11.00;7.43;;;20.20;65.50;;;;;;5052994;28;20063;-68
2023/04/11 10:21:35;;;;;;;9.57;7.50;;;20.20;65.80;;;;;;5052944;28;20036;-68
2023/04/11 10:24:39;;;;;;;8.32;6.57;;;20.20;65.00;;;;;;5053032;28;20052;-68
2023/04/11 10:27:52;;;;;;;7.40;5.72;;;20.20;64.90;;;;;;5053196;28;20059;-68
2023/04/11 10:31:07;;;;;;;7.05;6.00;;;20.10;63.80;;;;;;5052951;28;20056;-68
2023/04/11 10:34:15;;;;;;;10.30;6.95;;;20.20;63.80;;;;;;5052820;28;20036;-68
2023/04/11 10:37:28;;;;;;;9.27;7.28;;;20.20;64.90;;;;;;5052587;28;20052;-68
2023/04/11 10:40:32;;;;;;;9.77;6.47;;;20.30;63.80;;;;;;5051365;28;20036;-68
2023/04/11 10:43:36;;;;;;;9.23;7.50;;;20.40;64.30;;;;;;5052432;28;20040;-68
2023/04/11 10:46:52;;;;;;;9.85;6.40;;;20.40;64.00;;;;;;5052372;28;20048;-68
2023/04/11 10:49:56;;;;;;;11.25;7.85;;;20.50;64.80;;;;;;5052283;28;20044;-68
2023/04/11 10:53:03;;;;;;;16.17;9.18;;;20.60;64.90;;;;;;5052203;28;20052;-68
2023/04/11 10:56:07;;;;;;;9.25;7.70;;;20.50;63.10;;;;;;5052511;28;20409;-68
2023/04/11 10:59:38;;;;;;;9.05;6.07;;;20.30;63.70;;;;;;5052386;28;20397;-68
2023/04/11 11:02:42;;;;;;;8.55;6.50;;;20.30;64.80;;;;;;5051843;28;20052;-68
2023/04/11 11:05:46;;;;;;;9.55;6.38;;;20.30;65.40;;;;;;5052311;28;20643;-68
2023/04/11 11:08:50;;;;;;;19.50;9.48;;;20.40;65.60;;;;;;5051667;28;20484;-68
2023/04/11 11:12:08;;;;;;;11.93;8.68;;;20.40;64.60;;;;;;5052337;28;20517;-68
2023/04/11 11:15:12;;;;;;;15.07;8.35;;;20.30;65.10;;;;;;5052396;28;20059;-68
2023/04/11 11:18:17;;;;;;;11.02;8.82;;;20.40;66.00;;;;;;5051824;28;20056;-68
2023/04/11 11:21:23;;;;;;;15.45;10.02;;;20.40;66.30;;;;;;5052162;28;20523;-68
2023/04/11 11:24:28;;;;;;;13.85;9.43;;;20.40;66.70;;;;;;5051840;28;20052;-68
2023/04/11 11:27:32;;;;;;;11.95;9.90;;;20.40;66.80;;;;;;5052051;28;20052;-69
2023/04/11 11:30:36;;;;;;;18.52;9.25;;;20.40;66.10;;;;;;5052017;28;20068;-68
2023/04/11 11:33:41;;;;;;;13.82;8.75;;;20.40;67.10;;;;;;5051898;28;20536;-69
2023/04/11 11:36:45;;;;;;;13.88;9.07;;;20.30;68.50;;;;;;5051659;28;20055;-69
2023/04/11 11:39:50;;;;;;;14.70;9.13;;;20.30;69.20;;;;;;5051845;28;20044;-68
2023/04/11 11:42:54;;;;;;;14.27;8.27;;;20.20;69.10;;;;;;5051704;28;20044;-68
2023/04/11 11:46:12;;;;;;;14.43;8.45;;;20.20;69.70;;;;;;5051348;28;20059;-69
2023/04/11 11:49:16;;;;;;;9.73;7.68;;;20.20;70.30;;;;;;5051796;28;20499;-67
2023/04/11 11:52:35;;;;;;;12.52;8.35;;;20.20;70.30;;;;;;5051575;28;20044;-68
2023/04/11 11:55:40;;;;;;;10.18;8.35;;;20.20;71.30;;;;;;5051263;28;20044;-69
2023/04/11 11:58:44;;;;;;;10.52;9.13;;;20.20;70.70;;;;;;5051505;28;20515;-68
2023/04/11 12:01:49;;;;;;;10.40;7.78;;;20.20;70.20;;;;;;5051082;28;20393;-68
2023/04/11 12:05:01;;;;;;;14.90;9.32;;;20.20;70.70;;;;;;5050850;28;20488;-69
2023/04/11 12:08:06;;;;;;;9.65;8.32;;;20.20;70.10;;;;;;5050964;28;20063;-68
2023/04/11 12:11:14;;;;;;;12.43;7.68;;;20.20;69.90;;;;;;5051492;28;20056;-69
2023/04/11 12:14:22;;;;;;;8.43;7.28;;;20.10;69.50;;;;;;5051295;28;20048;-68
2023/04/11 12:17:33;;;;;;;9.40;7.50;;;20.10;69.30;;;;;;5051167;28;20075;-68
2023/04/11 12:20:38;;;;;;;10.30;8.10;;;20.10;69.50;;;;;;5050189;28;20036;-68
2023/04/11 12:23:41;;;;;;;11.70;8.13;;;20.10;69.60;;;;;;5050762;28;20105;-68
2023/04/11 12:26:45;;;;;;;12.88;8.63;;;20.10;69.50;;;;;;5050752;28;20567;-68
2023/04/11 12:29:49;;;;;;;8.68;7.57;;;20.00;68.50;;;;;;5050821;28;20048;-68
2023/04/11 12:32:53;;;;;;;21.15;9.65;;;20.00;68.90;;;;;;5049997;28;20056;-68
2023/04/11 12:35:57;;;;;;;11.95;7.95;;;20.00;68.90;;;;;;5050734;28;20044;-69
2023/04/11 12:39:02;;;;;;;8.13;6.65;;;19.90;68.60;;;;;;5050623;28;20071;-68
2023/04/11 12:42:06;;;;;;;8.02;6.35;;;19.90;68.80;;;;;;5050990;28;20040;-68
2023/04/11 12:45:11;;;;;;;12.15;7.55;;;19.90;68.40;;;;;;5050646;28;20040;-67
2023/04/11 12:48:15;;;;;;;10.45;7.68;;;19.90;67.50;;;;;;5050762;28;20048;-68
2023/04/11 12:51:19;;;;;;;11.15;7.45;;;19.90;67.40;;;;;;5050566;28;20040;-68
2023/04/11 12:54:22;;;;;;;8.07;6.90;;;19.80;67.40;;;;;;5050673;28;20064;-68
2023/04/11 12:57:27;;;;;;;13.77;7.68;;;19.80;67.70;;;;;;5050150;28;20063;-67
2023/04/11 13:00:31;;;;;;;17.25;7.90;;;19.70;67.60;;;;;;5050216;28;20492;-66
2023/04/11 13:03:37;;;;;;;11.43;7.97;;;19.70;68.00;;;;;;5050531;28;20544;-66
2023/04/11 13:06:42;;;;;;;7.80;6.78;;;19.60;67.70;;;;;;5050837;28;20040;-66
2023/04/11 13:09:48;;;;;;;9.70;7.30;;;19.60;67.90;;;;;;5050526;28;20052;-67
2023/04/11 13:12:55;;;;;;;12.45;7.63;;;19.60;68.10;;;;;;5049301;28;20051;-67
2023/04/11 13:16:01;;;;;;;8.90;7.40;;;19.60;68.70;;;;;;5049315;28;20428;-67
2023/04/11 13:19:06;;;;;;;10.18;7.10;;;19.60;67.60;;;;;;5049563;28;20064;-67
2023/04/11 13:22:10;;;;;;;9.10;7.22;;;19.60;68.10;;;;;;5049146;28;20064;-67
2023/04/11 13:25:14;;;;;;;12.60;7.80;;;19.50;67.90;;;;;;5050256;28;20065;-67
2023/04/11 13:28:20;;;;;;;8.35;6.93;;;19.50;68.40;;;;;;5050366;28;20500;-70
2023/04/11 13:31:27;;;;;;;14.25;7.65;;;19.40;68.20;;;;;;5050538;28;20389;-67
2023/04/11 13:34:31;;;;;;;8.52;7.32;;;19.40;68.90;;;;;;5054109;28;20116;-68
2023/04/11 13:37:35;;;;;;;11.18;8.02;;;19.30;68.60;;;;;;5053165;28;20064;-71
2023/04/11 13:40:41;;;;;;;9.10;7.80;;;19.30;69.20;;;;;;5051498;28;20048;-68
2023/04/11 13:43:46;;;;;;;11.57;7.00;;;19.20;69.00;;;;;;5051832;28;20436;-68
2023/04/11 13:46:50;;;;;;;8.55;7.13;;;19.20;68.90;;;;;;5052804;28;20507;-67
2023/04/11 13:49:54;;;;;;;9.07;7.38;;;19.20;69.10;;;;;;5052940;28;20048;-69
2023/04/11 13:52:57;;;;;;;10.90;7.00;;;19.20;68.80;;;;;;5052933;28;20067;-69
2023/04/11 13:56:02;;;;;;;13.57;7.13;;;19.20;68.50;;;;;;5053755;28;20043;-68
2023/04/11 13:59:06;;;;;;;11.88;7.70;;;19.20;68.50;;;;;;5053484;28;20072;-70
2023/04/11 14:02:10;;;;;;;8.40;6.47;;;19.20;67.90;;;;;;5053210;28;20585;-69
2023/04/11 14:05:14;;;;;;;10.82;7.45;;;19.10;68.50;;;;;;5053798;28;20108;-67
2023/04/11 14:08:18;;;;;;;9.63;6.50;;;19.10;67.60;;;;;;5052395;28;20040;-68
2023/04/11 14:11:22;;;;;;;12.18;6.28;;;19.10;66.70;;;;;;5053126;28;20198;-68
2023/04/11 14:14:26;;;;;;;9.98;6.93;;;19.10;66.10;;;;;;5052832;28;20492;-68
2023/04/11 14:17:30;;;;;;;8.48;6.05;;;19.00;65.90;;;;;;5052859;28;20044;-67
2023/04/11 14:20:34;;;;;;;8.13;6.18;;;19.00;66.00;;;;;;5052957;28;20397;-67
2023/04/11 14:23:38;;;;;;;6.05;5.45;;;19.00;66.20;;;;;;5052809;28;20040;-68
2023/04/11 14:26:42;;;;;;;10.02;5.95;;;19.00;64.60;;;;;;5052835;28;20052;-67
2023/04/11 14:29:46;;;;;;;15.52;7.53;;;18.10;63.60;;;;;;5053000;28;20102;-69
2023/04/11 14:32:50;;;;;;;11.35;8.05;;;16.80;68.30;;;;;;5052527;28;20111;-67
2023/04/11 14:35:54;;;;;;;10.77;7.40;;;16.00;72.00;;;;;;5053058;28;20036;-68
2023/04/11 14:38:58;;;;;;;13.05;7.38;;;15.80;72.60;;;;;;5052492;28;20071;-70
2023/04/11 14:42:05;;;;;;;15.25;6.95;;;15.50;71.20;;;;;;5052530;28;20048;-66
2023/04/11 14:45:09;;;;;;;11.27;7.15;;;15.60;69.70;;;;;;5052126;28;20052;-65
2023/04/11 14:48:13;;;;;;;9.45;6.53;;;15.70;69.30;;;;;;5052648;28;20392;-68
2023/04/11 14:51:17;;;;;;;14.02;8.65;;;15.40;71.70;;;;;;5051505;28;20044;-68
2023/04/11 14:54:23;;;;;;;10.88;8.18;;;16.80;72.80;;;;;;5052602;28;20048;-68
2023/04/11 14:57:48;;;;;;;13.13;7.53;;;15.40;71.30;;;;;;5052157;28;20512;-67
2023/04/11 15:00:52;;;;;;;20.00;9.00;;;15.20;73.10;;;;;;5052234;28;20492;-66
2023/04/11 15:03:56;;;;;;;14.05;7.35;;;15.50;70.30;;;;;;5052199;28;20063;-67
2023/04/11 15:07:00;;;;;;;8.93;6.82;;;15.20;69.20;;;;;;5052234;28;20044;-67
2023/04/11 15:10:05;;;;;;;9.90;7.00;;;;;;;;;;5052572;28;20103;-66
2023/04/11 15:13:10;;;;;;;13.05;7.10;;;13.60;69.60;;;;;;5051933;28;20493;-66
2023/04/11 15:16:15;;;;;;;11.55;6.93;;;;;;;;;;5052269;28;20500;-69
2023/04/11 15:19:19;;;;;;;9.77;7.43;;;15.30;71.10;;;;;;5052192;28;20060;-67
2023/04/11 15:22:23;;;;;;;11.02;7.75;;;;;;;;;;5052069;28;20385;-68
2023/04/11 15:25:27;;;;;;;11.27;7.63;;;;;;;;;;5050543;28;20055;-67
2023/04/11 15:28:36;;;;;;;17.88;8.70;;;15.00;72.50;;;;;;5051645;28;20396;-67
2023/04/11 15:31:40;;;;;;;11.57;6.85;;;;;;;;;;5051358;28;20404;-67
2023/04/11 15:34:44;;;;;;;9.98;7.75;;;13.70;73.90;;;;;;5052448;28;20044;-66
2023/04/11 15:37:48;;;;;;;15.43;7.90;;;;;;;;;;5051552;28;20361;-66
2023/04/11 15:40:55;;;;;;;10.85;6.90;;;15.30;75.70;;;;;;5051542;28;20504;-67
2023/04/11 15:43:59;;;;;;;12.18;7.32;;;;;;;;;;5051222;28;20044;-67
2023/04/11 15:47:06;;;;;;;14.50;7.63;;;;;;;;;;5051589;28;20068;-69
2023/04/11 15:50:10;;;;;;;13.95;7.47;;;;;;;;;;5051496;28;20147;-66
2023/04/11 15:53:15;;;;;;;10.75;6.43;;;;;;;;;;5051453;28;20056;-66
2023/04/11 15:56:19;;;;;;;21.60;11.07;;;;;;;;;;5050380;28;20048;-67
2023/04/11 15:59:26;;;;;;;16.52;7.00;;;;;;;;;;5051098;28;20074;-66
2023/04/11 16:02:30;;;;;;;15.93;6.90;;;11.30;77.70;;;;;;5051296;28;20052;-68
2023/04/11 16:05:37;;;;;;;12.80;6.93;;;;;;;;;;5051308;28;20040;-72